sensor_id;sensor_type;location;lat;lon;timestamp;P1;durP1;ratioP1;P2;durP2;ratioP2
33495;SDS011;19836;55.812;37.560;2024-02-26T00:02:19;3.95;;;2.60;;
33495;SDS011;19836;55.812;37.560;2024-02-26T00:04:44;4.13;;;2.22;;
33495;SDS011;19836;55.812;37.560;2024-02-26T00:07:10;5.15;;;2.88;;
33495;SDS011;19836;55.812;37.560;2024-02-26T00:09:36;3.83;;;2.50;;
33495;SDS011;19836;55.812;37.560;2024-02-26T00:12:03;4.22;;;2.83;;
33495;SDS011;19836;55.812;37.560;2024-02-26T00:14:30;3.25;;;2.45;;
33495;SDS011;19836;55.812;37.560;2024-02-26T00:16:56;4.43;;;2.58;;
33495;SDS011;19836;55.812;37.560;2024-02-26T00:19:22;4.40;;;2.35;;
33495;SDS011;19836;55.812;37.560;2024-02-26T00:21:48;3.05;;;2.38;;
33495;SDS011;19836;55.812;37.560;2024-02-26T00:24:14;3.13;;;2.30;;
33495;SDS011;19836;55.812;37.560;2024-02-26T00:26:40;3.03;;;2.30;;
33495;SDS011;19836;55.812;37.560;2024-02-26T00:29:06;5.75;;;2.40;;
33495;SDS011;19836;55.812;37.560;2024-02-26T00:31:32;2.85;;;2.38;;
33495;SDS011;19836;55.812;37.560;2024-02-26T00:33:58;3.97;;;2.00;;
33495;SDS011;19836;55.812;37.560;2024-02-26T00:36:23;2.60;;;2.15;;
33495;SDS011;19836;55.812;37.560;2024-02-26T00:38:49;4.07;;;2.40;;
33495;SDS011;19836;55.812;37.560;2024-02-26T00:41:18;3.50;;;2.28;;
33495;SDS011;19836;55.812;37.560;2024-02-26T00:43:45;4.45;;;2.20;;
33495;SDS011;19836;55.812;37.560;2024-02-26T00:46:12;3.95;;;2.63;;
33495;SDS011;19836;55.812;37.560;2024-02-26T00:48:38;4.68;;;3.03;;
33495;SDS011;19836;55.812;37.560;2024-02-26T00:51:04;7.07;;;2.40;;
33495;SDS011;19836;55.812;37.560;2024-02-26T00:53:31;5.40;;;2.17;;
33495;SDS011;19836;55.812;37.560;2024-02-26T00:55:57;3.85;;;2.40;;
33495;SDS011;19836;55.812;37.560;2024-02-26T00:58:24;3.97;;;2.55;;
33495;SDS011;19836;55.812;37.560;2024-02-26T01:00:51;5.30;;;2.67;;
33495;SDS011;19836;55.812;37.560;2024-02-26T01:03:17;3.83;;;2.38;;
33495;SDS011;19836;55.812;37.560;2024-02-26T01:05:43;4.32;;;2.30;;
33495;SDS011;19836;55.812;37.560;2024-02-26T01:08:09;3.03;;;1.98;;
33495;SDS011;19836;55.812;37.560;2024-02-26T01:10:35;3.13;;;2.45;;
33495;SDS011;19836;55.812;37.560;2024-02-26T01:13:01;2.85;;;1.88;;
33495;SDS011;19836;55.812;37.560;2024-02-26T01:15:27;5.47;;;2.22;;
33495;SDS011;19836;55.812;37.560;2024-02-26T01:17:54;4.25;;;2.13;;
33495;SDS011;19836;55.812;37.560;2024-02-26T01:20:20;3.85;;;1.77;;
33495;SDS011;19836;55.812;37.560;2024-02-26T01:22:46;3.10;;;2.30;;
33495;SDS011;19836;55.812;37.560;2024-02-26T01:25:12;3.10;;;2.13;;
33495;SDS011;19836;55.812;37.560;2024-02-26T01:27:38;4.13;;;2.22;;
33495;SDS011;19836;55.812;37.560;2024-02-26T01:30:06;3.17;;;1.88;;
33495;SDS011;19836;55.812;37.560;2024-02-26T01:32:33;3.00;;;2.08;;
33495;SDS011;19836;55.812;37.560;2024-02-26T01:34:59;2.88;;;1.95;;
33495;SDS011;19836;55.812;37.560;2024-02-26T01:37:25;2.97;;;2.00;;
33495;SDS011;19836;55.812;37.560;2024-02-26T01:39:51;2.78;;;1.95;;
33495;SDS011;19836;55.812;37.560;2024-02-26T01:42:17;2.38;;;1.88;;
33495;SDS011;19836;55.812;37.560;2024-02-26T01:44:44;3.88;;;2.28;;
33495;SDS011;19836;55.812;37.560;2024-02-26T01:47:10;2.90;;;2.08;;
33495;SDS011;19836;55.812;37.560;2024-02-26T01:49:38;2.78;;;1.73;;
33495;SDS011;19836;55.812;37.560;2024-02-26T01:52:06;4.25;;;2.40;;
33495;SDS011;19836;55.812;37.560;2024-02-26T01:54:36;2.78;;;1.63;;
33495;SDS011;19836;55.812;37.560;2024-02-26T01:57:03;4.00;;;1.90;;
33495;SDS011;19836;55.812;37.560;2024-02-26T01:59:30;3.50;;;1.70;;
33495;SDS011;19836;55.812;37.560;2024-02-26T02:01:57;2.28;;;1.77;;
33495;SDS011;19836;55.812;37.560;2024-02-26T02:04:27;2.53;;;2.10;;
33495;SDS011;19836;55.812;37.560;2024-02-26T02:06:53;2.55;;;1.92;;
33495;SDS011;19836;55.812;37.560;2024-02-26T02:09:20;4.20;;;2.20;;
33495;SDS011;19836;55.812;37.560;2024-02-26T02:11:47;3.78;;;1.98;;
33495;SDS011;19836;55.812;37.560;2024-02-26T02:14:14;5.25;;;2.00;;
33495;SDS011;19836;55.812;37.560;2024-02-26T02:16:40;3.95;;;1.90;;
33495;SDS011;19836;55.812;37.560;2024-02-26T02:19:06;1.98;;;1.58;;
33495;SDS011;19836;55.812;37.560;2024-02-26T02:21:32;3.63;;;1.60;;
33495;SDS011;19836;55.812;37.560;2024-02-26T02:23:58;2.13;;;1.65;;
33495;SDS011;19836;55.812;37.560;2024-02-26T02:26:24;2.17;;;1.50;;
33495;SDS011;19836;55.812;37.560;2024-02-26T02:28:50;2.22;;;1.90;;
33495;SDS011;19836;55.812;37.560;2024-02-26T02:31:16;3.38;;;1.70;;
33495;SDS011;19836;55.812;37.560;2024-02-26T02:33:42;2.08;;;1.67;;
33495;SDS011;19836;55.812;37.560;2024-02-26T02:36:11;2.67;;;1.92;;
33495;SDS011;19836;55.812;37.560;2024-02-26T02:38:37;2.60;;;1.90;;
33495;SDS011;19836;55.812;37.560;2024-02-26T02:41:04;2.90;;;1.80;;
33495;SDS011;19836;55.812;37.560;2024-02-26T02:43:30;3.30;;;1.90;;
33495;SDS011;19836;55.812;37.560;2024-02-26T02:45:57;2.30;;;1.88;;
33495;SDS011;19836;55.812;37.560;2024-02-26T02:48:23;2.28;;;1.77;;
33495;SDS011;19836;55.812;37.560;2024-02-26T02:50:48;4.18;;;1.92;;
33495;SDS011;19836;55.812;37.560;2024-02-26T02:53:14;4.03;;;1.70;;
33495;SDS011;19836;55.812;37.560;2024-02-26T03:23:49;1.88;;;1.48;;
33495;SDS011;19836;55.812;37.560;2024-02-26T03:37:01;2.83;;;1.70;;
33495;SDS011;19836;55.812;37.560;2024-02-26T03:39:34;3.45;;;1.60;;
33495;SDS011;19836;55.812;37.560;2024-02-26T03:42:37;1.85;;;1.25;;
33495;SDS011;19836;55.812;37.560;2024-02-26T03:45:04;2.60;;;1.58;;
33495;SDS011;19836;55.812;37.560;2024-02-26T03:47:30;2.45;;;1.60;;
33495;SDS011;19836;55.812;37.560;2024-02-26T03:49:57;2.70;;;1.50;;
33495;SDS011;19836;55.812;37.560;2024-02-26T03:52:24;3.50;;;1.55;;
33495;SDS011;19836;55.812;37.560;2024-02-26T03:54:50;1.98;;;1.30;;
33495;SDS011;19836;55.812;37.560;2024-02-26T03:57:16;2.00;;;1.70;;
33495;SDS011;19836;55.812;37.560;2024-02-26T03:59:42;2.20;;;1.52;;
33495;SDS011;19836;55.812;37.560;2024-02-26T04:02:09;2.00;;;1.35;;
33495;SDS011;19836;55.812;37.560;2024-02-26T04:07:30;3.28;;;1.23;;
33495;SDS011;19836;55.812;37.560;2024-02-26T04:10:22;3.50;;;1.77;;
33495;SDS011;19836;55.812;37.560;2024-02-26T04:12:57;2.58;;;1.48;;
33495;SDS011;19836;55.812;37.560;2024-02-26T04:17:10;2.55;;;1.48;;
33495;SDS011;19836;55.812;37.560;2024-02-26T04:19:37;2.88;;;1.80;;
33495;SDS011;19836;55.812;37.560;2024-02-26T04:22:03;2.95;;;1.77;;
33495;SDS011;19836;55.812;37.560;2024-02-26T04:24:31;2.40;;;1.45;;
33495;SDS011;19836;55.812;37.560;2024-02-26T04:26:58;2.40;;;1.50;;
33495;SDS011;19836;55.812;37.560;2024-02-26T04:29:24;3.33;;;1.83;;
33495;SDS011;19836;55.812;37.560;2024-02-26T04:31:53;2.80;;;1.92;;
33495;SDS011;19836;55.812;37.560;2024-02-26T04:34:19;3.60;;;2.10;;
33495;SDS011;19836;55.812;37.560;2024-02-26T04:36:45;3.03;;;1.50;;
33495;SDS011;19836;55.812;37.560;2024-02-26T04:39:13;3.60;;;1.83;;
33495;SDS011;19836;55.812;37.560;2024-02-26T04:41:39;4.05;;;2.20;;
33495;SDS011;19836;55.812;37.560;2024-02-26T04:44:05;4.28;;;1.90;;
33495;SDS011;19836;55.812;37.560;2024-02-26T04:46:31;4.47;;;1.92;;
33495;SDS011;19836;55.812;37.560;2024-02-26T04:48:57;5.97;;;2.17;;
33495;SDS011;19836;55.812;37.560;2024-02-26T04:51:24;3.60;;;1.77;;
33495;SDS011;19836;55.812;37.560;2024-02-26T04:53:49;3.17;;;1.98;;
33495;SDS011;19836;55.812;37.560;2024-02-26T04:56:15;2.80;;;2.05;;
33495;SDS011;19836;55.812;37.560;2024-02-26T05:01:24;3.30;;;2.15;;
33495;SDS011;19836;55.812;37.560;2024-02-26T05:03:51;3.72;;;2.17;;
33495;SDS011;19836;55.812;37.560;2024-02-26T05:06:18;4.55;;;1.30;;
33495;SDS011;19836;55.812;37.560;2024-02-26T05:08:50;2.83;;;1.80;;
33495;SDS011;19836;55.812;37.560;2024-02-26T05:11:16;3.50;;;2.20;;
33495;SDS011;19836;55.812;37.560;2024-02-26T05:13:47;2.75;;;1.63;;
33495;SDS011;19836;55.812;37.560;2024-02-26T05:16:14;3.05;;;1.95;;
33495;SDS011;19836;55.812;37.560;2024-02-26T05:18:40;3.25;;;1.88;;
33495;SDS011;19836;55.812;37.560;2024-02-26T05:21:06;7.35;;;2.17;;
33495;SDS011;19836;55.812;37.560;2024-02-26T05:23:35;2.80;;;1.95;;
33495;SDS011;19836;55.812;37.560;2024-02-26T05:26:04;4.05;;;2.28;;
33495;SDS011;19836;55.812;37.560;2024-02-26T05:28:31;5.93;;;2.00;;
33495;SDS011;19836;55.812;37.560;2024-02-26T05:30:57;6.22;;;1.90;;
33495;SDS011;19836;55.812;37.560;2024-02-26T05:33:23;3.97;;;2.38;;
33495;SDS011;19836;55.812;37.560;2024-02-26T05:35:49;2.65;;;2.05;;
33495;SDS011;19836;55.812;37.560;2024-02-26T05:38:15;3.85;;;2.60;;
33495;SDS011;19836;55.812;37.560;2024-02-26T05:40:45;4.20;;;2.40;;
33495;SDS011;19836;55.812;37.560;2024-02-26T05:43:15;3.60;;;2.55;;
33495;SDS011;19836;55.812;37.560;2024-02-26T05:45:46;3.78;;;1.83;;
33495;SDS011;19836;55.812;37.560;2024-02-26T05:51:08;5.25;;;2.58;;
33495;SDS011;19836;55.812;37.560;2024-02-26T05:53:41;4.13;;;2.67;;
33495;SDS011;19836;55.812;37.560;2024-02-26T05:56:11;7.93;;;2.45;;
33495;SDS011;19836;55.812;37.560;2024-02-26T05:58:48;4.10;;;2.45;;
33495;SDS011;19836;55.812;37.560;2024-02-26T06:01:17;6.03;;;2.55;;
33495;SDS011;19836;55.812;37.560;2024-02-26T06:03:44;4.22;;;2.40;;
33495;SDS011;19836;55.812;37.560;2024-02-26T06:06:10;4.78;;;2.67;;
33495;SDS011;19836;55.812;37.560;2024-02-26T06:08:37;5.47;;;2.50;;
33495;SDS011;19836;55.812;37.560;2024-02-26T06:11:06;3.55;;;2.53;;
33495;SDS011;19836;55.812;37.560;2024-02-26T06:13:33;3.53;;;2.33;;
33495;SDS011;19836;55.812;37.560;2024-02-26T06:15:59;4.10;;;2.20;;
33495;SDS011;19836;55.812;37.560;2024-02-26T06:18:25;3.92;;;2.50;;
33495;SDS011;19836;55.812;37.560;2024-02-26T06:20:51;2.90;;;2.40;;
33495;SDS011;19836;55.812;37.560;2024-02-26T06:23:18;4.47;;;2.80;;
33495;SDS011;19836;55.812;37.560;2024-02-26T06:25:44;3.90;;;2.50;;
33495;SDS011;19836;55.812;37.560;2024-02-26T06:28:10;6.70;;;3.17;;
33495;SDS011;19836;55.812;37.560;2024-02-26T06:30:36;5.72;;;3.10;;
33495;SDS011;19836;55.812;37.560;2024-02-26T06:33:02;3.92;;;2.83;;
33495;SDS011;19836;55.812;37.560;2024-02-26T06:35:28;4.82;;;2.50;;
33495;SDS011;19836;55.812;37.560;2024-02-26T06:37:54;5.47;;;2.83;;
33495;SDS011;19836;55.812;37.560;2024-02-26T06:40:20;5.22;;;2.90;;
33495;SDS011;19836;55.812;37.560;2024-02-26T06:42:46;7.88;;;3.53;;
33495;SDS011;19836;55.812;37.560;2024-02-26T06:45:12;5.88;;;2.78;;
33495;SDS011;19836;55.812;37.560;2024-02-26T06:47:41;5.32;;;2.33;;
33495;SDS011;19836;55.812;37.560;2024-02-26T07:30:11;8.45;;;2.90;;
33495;SDS011;19836;55.812;37.560;2024-02-26T07:42:51;8.77;;;4.47;;
33495;SDS011;19836;55.812;37.560;2024-02-26T07:57:08;5.00;;;3.10;;
33495;SDS011;19836;55.812;37.560;2024-02-26T08:49:18;3.67;;;2.78;;
33495;SDS011;19836;55.812;37.560;2024-02-26T08:51:47;5.93;;;3.72;;
33495;SDS011;19836;55.812;37.560;2024-02-26T08:54:20;4.15;;;2.60;;
33495;SDS011;19836;55.812;37.560;2024-02-26T08:56:47;4.97;;;3.13;;
33495;SDS011;19836;55.812;37.560;2024-02-26T08:59:40;7.22;;;2.85;;
33495;SDS011;19836;55.812;37.560;2024-02-26T09:02:07;6.97;;;3.63;;
33495;SDS011;19836;55.812;37.560;2024-02-26T09:04:45;5.70;;;3.40;;
33495;SDS011;19836;55.812;37.560;2024-02-26T09:07:15;6.72;;;3.65;;
33495;SDS011;19836;55.812;37.560;2024-02-26T09:09:46;7.40;;;4.00;;
33495;SDS011;19836;55.812;37.560;2024-02-26T09:12:15;5.30;;;3.78;;
33495;SDS011;19836;55.812;37.560;2024-02-26T09:15:09;5.20;;;3.42;;
33495;SDS011;19836;55.812;37.560;2024-02-26T09:17:45;7.78;;;3.80;;
33495;SDS011;19836;55.812;37.560;2024-02-26T09:20:17;6.28;;;3.22;;
33495;SDS011;19836;55.812;37.560;2024-02-26T09:22:47;4.63;;;3.22;;
33495;SDS011;19836;55.812;37.560;2024-02-26T09:25:14;4.55;;;3.03;;
33495;SDS011;19836;55.812;37.560;2024-02-26T09:28:09;4.93;;;2.78;;
33495;SDS011;19836;55.812;37.560;2024-02-26T09:30:37;6.43;;;3.80;;
33495;SDS011;19836;55.812;37.560;2024-02-26T09:33:32;9.07;;;3.55;;
33495;SDS011;19836;55.812;37.560;2024-02-26T09:36:04;4.90;;;3.15;;
33495;SDS011;19836;55.812;37.560;2024-02-26T09:39:08;8.38;;;3.33;;
33495;SDS011;19836;55.812;37.560;2024-02-26T09:42:07;6.25;;;4.00;;
33495;SDS011;19836;55.812;37.560;2024-02-26T09:44:40;6.28;;;3.42;;
33495;SDS011;19836;55.812;37.560;2024-02-26T09:47:11;6.05;;;3.83;;
33495;SDS011;19836;55.812;37.560;2024-02-26T09:49:46;5.68;;;3.30;;
33495;SDS011;19836;55.812;37.560;2024-02-26T09:52:15;4.88;;;3.67;;
33495;SDS011;19836;55.812;37.560;2024-02-26T09:58:31;6.72;;;4.32;;
33495;SDS011;19836;55.812;37.560;2024-02-26T10:01:03;6.72;;;4.32;;
33495;SDS011;19836;55.812;37.560;2024-02-26T10:12:24;5.97;;;3.88;;
33495;SDS011;19836;55.812;37.560;2024-02-26T11:09:02;5.70;;;3.95;;
33495;SDS011;19836;55.812;37.560;2024-02-26T11:11:45;5.75;;;3.58;;
33495;SDS011;19836;55.812;37.560;2024-02-26T11:14:25;6.88;;;3.45;;
33495;SDS011;19836;55.812;37.560;2024-02-26T11:16:58;7.15;;;4.32;;
33495;SDS011;19836;55.812;37.560;2024-02-26T11:20:17;7.97;;;3.80;;
33495;SDS011;19836;55.812;37.560;2024-02-26T11:23:10;10.93;;;4.20;;
33495;SDS011;19836;55.812;37.560;2024-02-26T11:26:00;4.78;;;2.95;;
33495;SDS011;19836;55.812;37.560;2024-02-26T11:28:57;6.72;;;3.97;;
33495;SDS011;19836;55.812;37.560;2024-02-26T11:31:50;6.78;;;3.65;;
33495;SDS011;19836;55.812;37.560;2024-02-26T11:39:41;7.65;;;3.95;;
33495;SDS011;19836;55.812;37.560;2024-02-26T11:42:55;7.75;;;3.85;;
33495;SDS011;19836;55.812;37.560;2024-02-26T11:45:50;11.50;;;4.10;;
33495;SDS011;19836;55.812;37.560;2024-02-26T11:48:34;8.77;;;4.22;;
33495;SDS011;19836;55.812;37.560;2024-02-26T11:51:15;11.10;;;3.90;;
33495;SDS011;19836;55.812;37.560;2024-02-26T11:53:49;4.97;;;3.60;;
33495;SDS011;19836;55.812;37.560;2024-02-26T13:16:56;6.10;;;3.38;;
33495;SDS011;19836;55.812;37.560;2024-02-26T13:20:29;8.07;;;4.15;;
33495;SDS011;19836;55.812;37.560;2024-02-26T13:24:07;5.50;;;3.42;;
33495;SDS011;19836;55.812;37.560;2024-02-26T13:31:09;10.35;;;3.03;;
33495;SDS011;19836;55.812;37.560;2024-02-26T15:24:11;6.63;;;3.10;;
33495;SDS011;19836;55.812;37.560;2024-02-26T15:27:17;3.90;;;2.65;;
33495;SDS011;19836;55.812;37.560;2024-02-26T15:30:21;5.40;;;2.83;;
33495;SDS011;19836;55.812;37.560;2024-02-26T15:53:40;4.57;;;2.83;;
33495;SDS011;19836;55.812;37.560;2024-02-26T15:56:06;7.80;;;3.15;;
33495;SDS011;19836;55.812;37.560;2024-02-26T15:58:32;6.25;;;4.05;;
33495;SDS011;19836;55.812;37.560;2024-02-26T16:00:58;4.00;;;3.10;;
33495;SDS011;19836;55.812;37.560;2024-02-26T16:03:27;6.63;;;2.92;;
33495;SDS011;19836;55.812;37.560;2024-02-26T16:05:55;6.13;;;3.10;;
33495;SDS011;19836;55.812;37.560;2024-02-26T16:08:27;6.35;;;3.30;;
33495;SDS011;19836;55.812;37.560;2024-02-26T16:10:54;5.18;;;2.67;;
33495;SDS011;19836;55.812;37.560;2024-02-26T16:17:14;4.80;;;3.42;;
33495;SDS011;19836;55.812;37.560;2024-02-26T16:19:44;10.50;;;4.13;;
33495;SDS011;19836;55.812;37.560;2024-02-26T16:22:11;6.10;;;3.63;;
33495;SDS011;19836;55.812;37.560;2024-02-26T16:24:37;7.68;;;3.28;;
33495;SDS011;19836;55.812;37.560;2024-02-26T16:27:03;8.88;;;5.82;;
33495;SDS011;19836;55.812;37.560;2024-02-26T16:29:29;4.70;;;3.47;;
33495;SDS011;19836;55.812;37.560;2024-02-26T16:31:55;4.90;;;3.38;;
33495;SDS011;19836;55.812;37.560;2024-02-26T16:34:21;4.47;;;3.15;;
33495;SDS011;19836;55.812;37.560;2024-02-26T16:36:47;3.58;;;2.67;;
33495;SDS011;19836;55.812;37.560;2024-02-26T16:39:13;5.68;;;2.90;;
33495;SDS011;19836;55.812;37.560;2024-02-26T16:41:39;4.95;;;3.10;;
33495;SDS011;19836;55.812;37.560;2024-02-26T16:44:05;5.93;;;3.47;;
33495;SDS011;19836;55.812;37.560;2024-02-26T16:46:32;6.15;;;3.30;;
33495;SDS011;19836;55.812;37.560;2024-02-26T16:48:59;4.75;;;3.22;;
33495;SDS011;19836;55.812;37.560;2024-02-26T16:51:25;5.55;;;3.13;;
33495;SDS011;19836;55.812;37.560;2024-02-26T16:53:51;5.32;;;3.03;;
33495;SDS011;19836;55.812;37.560;2024-02-26T16:56:18;8.95;;;3.20;;
33495;SDS011;19836;55.812;37.560;2024-02-26T16:58:44;5.88;;;3.60;;
33495;SDS011;19836;55.812;37.560;2024-02-26T17:01:11;5.85;;;2.78;;
33495;SDS011;19836;55.812;37.560;2024-02-26T17:03:38;5.78;;;3.20;;
33495;SDS011;19836;55.812;37.560;2024-02-26T17:06:04;6.13;;;3.92;;
33495;SDS011;19836;55.812;37.560;2024-02-26T17:08:31;6.30;;;3.58;;
33495;SDS011;19836;55.812;37.560;2024-02-26T17:10:59;5.10;;;2.90;;
33495;SDS011;19836;55.812;37.560;2024-02-26T17:31:38;8.10;;;3.17;;
33495;SDS011;19836;55.812;37.560;2024-02-26T17:34:12;3.92;;;2.53;;
33495;SDS011;19836;55.812;37.560;2024-02-26T17:36:56;7.72;;;2.80;;
33495;SDS011;19836;55.812;37.560;2024-02-26T18:02:17;4.65;;;2.67;;
33495;SDS011;19836;55.812;37.560;2024-02-26T18:04:43;5.40;;;2.88;;
33495;SDS011;19836;55.812;37.560;2024-02-26T18:07:11;5.70;;;2.58;;
33495;SDS011;19836;55.812;37.560;2024-02-26T18:09:38;6.28;;;2.95;;
33495;SDS011;19836;55.812;37.560;2024-02-26T18:12:09;4.82;;;2.17;;
33495;SDS011;19836;55.812;37.560;2024-02-26T18:14:38;6.47;;;3.00;;
33495;SDS011;19836;55.812;37.560;2024-02-26T18:20:01;4.85;;;2.78;;
33495;SDS011;19836;55.812;37.560;2024-02-26T18:22:32;4.00;;;2.55;;
33495;SDS011;19836;55.812;37.560;2024-02-26T18:26:00;5.43;;;2.92;;
33495;SDS011;19836;55.812;37.560;2024-02-26T18:28:35;4.22;;;2.60;;
33495;SDS011;19836;55.812;37.560;2024-02-26T18:31:08;5.38;;;2.25;;
33495;SDS011;19836;55.812;37.560;2024-02-26T18:33:36;5.22;;;2.97;;
33495;SDS011;19836;55.812;37.560;2024-02-26T18:37:07;4.38;;;2.50;;
33495;SDS011;19836;55.812;37.560;2024-02-26T18:39:35;5.30;;;3.22;;
33495;SDS011;19836;55.812;37.560;2024-02-26T18:42:05;5.28;;;3.03;;
33495;SDS011;19836;55.812;37.560;2024-02-26T18:44:32;4.05;;;2.95;;
33495;SDS011;19836;55.812;37.560;2024-02-26T18:47:02;5.57;;;2.53;;
33495;SDS011;19836;55.812;37.560;2024-02-26T18:49:33;5.38;;;3.35;;
33495;SDS011;19836;55.812;37.560;2024-02-26T18:52:02;4.25;;;2.30;;
33495;SDS011;19836;55.812;37.560;2024-02-26T18:54:29;3.83;;;2.35;;
33495;SDS011;19836;55.812;37.560;2024-02-26T18:57:10;6.78;;;3.47;;
33495;SDS011;19836;55.812;37.560;2024-02-26T19:19:33;5.03;;;2.90;;
33495;SDS011;19836;55.812;37.560;2024-02-26T19:22:25;5.47;;;2.90;;
33495;SDS011;19836;55.812;37.560;2024-02-26T19:25:00;4.93;;;3.10;;
33495;SDS011;19836;55.812;37.560;2024-02-26T19:34:28;5.30;;;2.20;;
33495;SDS011;19836;55.812;37.560;2024-02-26T19:36:56;4.32;;;2.80;;
33495;SDS011;19836;55.812;37.560;2024-02-26T19:40:46;5.47;;;2.47;;
33495;SDS011;19836;55.812;37.560;2024-02-26T19:47:17;4.63;;;2.00;;
33495;SDS011;19836;55.812;37.560;2024-02-26T19:49:52;6.47;;;2.80;;
33495;SDS011;19836;55.812;37.560;2024-02-26T19:52:19;7.18;;;3.42;;
33495;SDS011;19836;55.812;37.560;2024-02-26T19:54:46;5.60;;;3.10;;
33495;SDS011;19836;55.812;37.560;2024-02-26T20:01:18;4.10;;;2.60;;
33495;SDS011;19836;55.812;37.560;2024-02-26T20:03:45;8.27;;;3.60;;
33495;SDS011;19836;55.812;37.560;2024-02-26T20:06:42;5.45;;;2.78;;
33495;SDS011;19836;55.812;37.560;2024-02-26T20:20:51;4.75;;;2.53;;
33495;SDS011;19836;55.812;37.560;2024-02-26T20:29:06;5.32;;;2.88;;
33495;SDS011;19836;55.812;37.560;2024-02-26T21:21:10;4.95;;;2.88;;
33495;SDS011;19836;55.812;37.560;2024-02-26T22:12:06;9.35;;;4.60;;
33495;SDS011;19836;55.812;37.560;2024-02-26T22:16:11;4.65;;;2.97;;
33495;SDS011;19836;55.812;37.560;2024-02-26T22:22:27;4.80;;;2.97;;
33495;SDS011;19836;55.812;37.560;2024-02-26T22:28:21;5.35;;;3.28;;
33495;SDS011;19836;55.812;37.560;2024-02-26T22:30:56;3.92;;;2.88;;
33495;SDS011;19836;55.812;37.560;2024-02-26T22:33:25;10.60;;;3.60;;
33495;SDS011;19836;55.812;37.560;2024-02-26T22:35:56;8.63;;;4.35;;
33495;SDS011;19836;55.812;37.560;2024-02-26T22:39:48;3.78;;;2.50;;
33495;SDS011;19836;55.812;37.560;2024-02-26T22:42:52;5.75;;;4.00;;
33495;SDS011;19836;55.812;37.560;2024-02-26T22:46:26;14.05;;;4.18;;
33495;SDS011;19836;55.812;37.560;2024-02-26T23:39:26;4.55;;;2.60;;
33495;SDS011;19836;55.812;37.560;2024-02-26T23:50:47;9.05;;;3.45;;
33495;SDS011;19836;55.812;37.560;2024-02-26T23:53:26;6.07;;;3.08;;
33495;SDS011;19836;55.812;37.560;2024-02-26T23:56:13;6.35;;;3.20;;
33495;SDS011;19836;55.812;37.560;2024-02-26T23:58:49;5.65;;;3.55;;
